Time;durP1;ratioP1;P1;durP2;ratioP2;P2;SDS_P1;SDS_P2;PMS_P1;PMS_P2;Temp;Humidity;BMP_temperature;BMP_pressure;BME280_temperature;BME280_humidity;BME280_pressure;Samples;Min_cycle;Max_cycle;Signal;HPM_P1;HPM_P2
2022/10/15 04:01:07;;;;;;;5.38;3.78;;;12.40;99.90;;;;;;6198456;22;20476;-71
2022/10/15 04:03:34;;;;;;;8.05;4.88;;;12.30;99.90;;;;;;6242191;23;20171;-71
2022/10/15 04:06:01;;;;;;;7.53;4.28;;;12.20;99.90;;;;;;6242199;23;20462;-71
2022/10/15 04:08:27;;;;;;;6.95;5.60;;;11.90;99.90;;;;;;6242236;23;20205;-70
2022/10/15 04:10:54;;;;;;;3.83;3.50;;;12.10;99.90;;;;;;6241027;22;20209;-70
2022/10/15 04:13:20;;;;;;;6.40;5.72;;;12.10;99.90;;;;;;6241828;23;20187;-70
2022/10/15 04:18:22;;;;;;;6.32;5.10;;;12.00;99.90;;;;;;6251377;23;20258;-71
2022/10/15 04:20:49;;;;;;;6.20;4.65;;;12.00;99.90;;;;;;6225672;23;20178;-71
2022/10/15 04:23:17;;;;;;;6.00;4.53;;;12.00;99.90;;;;;;6253578;23;20198;-71
2022/10/15 04:25:44;;;;;;;5.68;4.90;;;12.00;99.90;;;;;;6252069;23;20194;-71
2022/10/15 04:28:11;;;;;;;5.70;4.68;;;12.00;99.90;;;;;;6250625;23;20203;-71
2022/10/15 04:30:38;;;;;;;4.93;4.43;;;12.00;99.90;;;;;;6251531;23;20187;-71
2022/10/15 04:33:04;;;;;;;4.70;4.13;;;12.00;99.90;;;;;;6250216;23;20280;-71
2022/10/15 04:35:33;;;;;;;6.15;5.05;;;11.90;99.90;;;;;;6250899;23;20197;-71
2022/10/15 04:38:00;;;;;;;6.30;4.50;;;11.90;99.90;;;;;;6252026;23;20208;-71
2022/10/15 04:40:27;;;;;;;9.45;4.95;;;11.90;99.90;;;;;;6252679;23;20179;-71
2022/10/15 04:42:54;;;;;;;4.82;4.40;;;11.90;99.90;;;;;;6252938;23;20194;-71
2022/10/15 04:45:21;;;;;;;6.00;5.05;;;11.90;99.90;;;;;;6252127;23;20179;-69
2022/10/15 04:47:47;;;;;;;8.00;5.82;;;11.90;99.90;;;;;;6254037;23;20202;-69
2022/10/15 04:50:14;;;;;;;9.45;4.90;;;11.90;99.90;;;;;;6251043;23;20183;-70
2022/10/15 04:52:42;;;;;;;5.93;3.63;;;11.90;99.90;;;;;;6261340;23;20253;-69
2022/10/15 04:55:09;;;;;;;12.80;6.32;;;11.80;99.90;;;;;;6252260;23;20187;-70
2022/10/15 04:57:36;;;;;;;8.48;5.70;;;11.80;99.90;;;;;;6251141;23;20199;-69
2022/10/15 05:00:03;;;;;;;8.02;5.18;;;11.80;99.90;;;;;;6251152;23;20182;-70
2022/10/15 05:02:31;;;;;;;6.93;5.65;;;11.80;99.90;;;;;;6252778;23;20183;-70
2022/10/15 05:04:58;;;;;;;9.88;5.53;;;11.90;99.90;;;;;;6251643;23;20190;-70
2022/10/15 05:07:25;;;;;;;9.70;6.13;;;11.90;99.90;;;;;;6248948;23;20209;-70
2022/10/15 05:09:53;;;;;;;6.63;5.77;;;11.90;99.90;;;;;;6260125;23;20512;-70
2022/10/15 05:12:20;;;;;;;11.98;6.80;;;11.90;99.90;;;;;;6250246;23;20482;-70
2022/10/15 05:14:46;;;;;;;10.55;7.95;;;12.00;99.90;;;;;;6250173;23;20285;-70
2022/10/15 05:17:13;;;;;;;6.55;4.60;;;12.00;99.90;;;;;;6250651;23;20206;-70
2022/10/15 05:19:40;;;;;;;13.75;7.38;;;12.00;99.90;;;;;;6251110;23;20237;-69
2022/10/15 05:22:06;;;;;;;9.57;6.65;;;12.10;99.90;;;;;;6250394;23;20213;-69
2022/10/15 05:24:33;;;;;;;15.07;5.90;;;12.10;99.90;;;;;;6248810;23;20193;-69
2022/10/15 05:27:01;;;;;;;10.32;7.80;;;12.10;99.90;;;;;;6251838;23;20203;-69
2022/10/15 05:29:28;;;;;;;9.45;6.50;;;12.10;99.90;;;;;;6251745;23;20524;-69
2022/10/15 05:31:55;;;;;;;8.13;4.68;;;12.10;99.90;;;;;;6251169;23;20183;-69
2022/10/15 05:34:22;;;;;;;10.32;5.47;;;12.20;99.90;;;;;;6251814;23;20182;-69
2022/10/15 05:36:48;;;;;;;11.60;4.75;;;12.20;99.90;;;;;;6251189;23;20302;-69
2022/10/15 05:39:15;;;;;;;7.38;5.05;;;12.20;99.90;;;;;;6251779;23;20183;-69
2022/10/15 05:41:42;;;;;;;6.90;5.78;;;12.20;99.90;;;;;;6252132;23;20193;-69
2022/10/15 05:44:10;;;;;;;8.88;4.90;;;12.20;99.90;;;;;;6251504;23;20255;-70
2022/10/15 05:46:36;;;;;;;8.88;5.28;;;12.20;99.90;;;;;;6252178;23;20312;-70
2022/10/15 05:49:03;;;;;;;8.43;6.05;;;12.20;99.90;;;;;;6251385;23;20202;-70
2022/10/15 05:51:30;;;;;;;8.90;5.50;;;12.20;99.90;;;;;;6251438;23;20556;-70
2022/10/15 05:53:58;;;;;;;6.03;5.60;;;12.30;99.90;;;;;;6251489;23;20275;-70
2022/10/15 05:56:25;;;;;;;6.30;5.37;;;12.30;99.90;;;;;;6261612;23;20444;-70
2022/10/15 05:58:52;;;;;;;12.68;5.60;;;12.30;99.90;;;;;;6250871;23;20422;-70
2022/10/15 06:01:20;;;;;;;13.88;6.25;;;12.40;99.90;;;;;;6250673;23;20192;-71
2022/10/15 06:03:47;;;;;;;7.43;4.37;;;12.40;99.90;;;;;;6256984;23;20188;-71
2022/10/15 06:06:15;;;;;;;10.80;6.13;;;12.40;99.90;;;;;;6244158;23;20445;-71
2022/10/15 06:08:42;;;;;;;9.23;4.90;;;12.50;99.90;;;;;;6244427;23;20464;-71
2022/10/15 06:11:09;;;;;;;10.80;6.03;;;12.50;99.90;;;;;;6244593;23;20422;-71
2022/10/15 06:13:38;;;;;;;9.37;5.73;;;12.50;99.90;;;;;;6242712;23;20653;-71
2022/10/15 06:16:05;;;;;;;7.50;4.20;;;12.60;99.90;;;;;;6243430;23;20433;-71
2022/10/15 06:18:33;;;;;;;13.07;7.13;;;12.60;99.90;;;;;;6244012;23;20588;-71
2022/10/15 06:21:00;;;;;;;6.60;4.63;;;12.60;99.90;;;;;;6243584;23;20477;-71
2022/10/15 06:23:26;;;;;;;15.50;7.95;;;12.60;99.90;;;;;;6243335;23;20207;-70
2022/10/15 06:25:53;;;;;;;7.70;6.77;;;12.70;99.90;;;;;;6254181;23;20175;-71
2022/10/15 06:28:20;;;;;;;8.60;6.20;;;12.70;99.90;;;;;;6241611;23;20908;-71
2022/10/15 06:30:47;;;;;;;9.10;5.20;;;12.80;99.90;;;;;;6241838;23;20430;-71
2022/10/15 06:33:14;;;;;;;7.00;4.60;;;12.80;99.90;;;;;;6243360;23;20433;-71
2022/10/15 06:35:42;;;;;;;12.00;6.70;;;12.80;99.90;;;;;;6242923;23;20912;-71
2022/10/15 06:38:09;;;;;;;10.90;4.60;;;12.80;99.90;;;;;;6244714;23;20444;-71
2022/10/15 06:40:37;;;;;;;8.90;6.20;;;12.90;99.90;;;;;;6245122;23;20426;-70
2022/10/15 06:43:06;;;;;;;6.57;4.80;;;12.90;99.90;;;;;;6246005;23;20750;-71
2022/10/15 06:45:35;;;;;;;12.03;6.67;;;13.00;99.90;;;;;;6244333;23;20421;-71
2022/10/15 06:48:02;;;;;;;7.30;4.87;;;13.00;99.90;;;;;;6244166;23;20765;-71
2022/10/15 06:50:29;;;;;;;11.70;6.80;;;13.00;99.90;;;;;;6243234;23;20444;-70
2022/10/15 06:52:57;;;;;;;8.50;5.47;;;13.00;99.90;;;;;;6243290;23;20430;-70
2022/10/15 06:55:23;;;;;;;6.43;4.90;;;13.10;99.90;;;;;;6243831;23;20731;-70
2022/10/15 06:57:50;;;;;;;6.47;5.83;;;13.10;99.90;;;;;;6242589;23;20953;-70
2022/10/15 07:00:17;;;;;;;25.30;7.60;;;13.20;99.90;;;;;;6242813;23;20431;-70
2022/10/15 07:02:44;;;;;;;8.80;5.70;;;13.20;99.90;;;;;;6242881;23;20422;-70
2022/10/15 07:05:11;;;;;;;7.63;6.00;;;13.20;99.90;;;;;;6242401;23;20426;-70
2022/10/15 07:07:37;;;;;;;12.13;5.90;;;13.20;99.90;;;;;;6242196;23;20473;-71
2022/10/15 07:10:06;;;;;;;8.20;4.40;;;13.30;99.90;;;;;;6241845;23;20509;-72
2022/10/15 07:12:33;;;;;;;16.83;5.73;;;13.30;99.90;;;;;;6242394;23;20940;-72
2022/10/15 07:15:00;;;;;;;5.27;4.77;;;13.30;99.90;;;;;;6241784;23;20422;-70
2022/10/15 07:17:30;;;;;;;6.67;4.20;;;13.30;99.90;;;;;;6242683;23;20479;-70
2022/10/15 07:19:57;;;;;;;9.43;6.53;;;13.40;99.90;;;;;;6241824;23;20470;-70
2022/10/15 07:22:23;;;;;;;7.60;5.27;;;13.40;99.90;;;;;;6242095;23;20478;-70
2022/10/15 07:24:50;;;;;;;11.57;6.20;;;13.40;99.90;;;;;;6242226;23;20475;-70
2022/10/15 07:27:19;;;;;;;9.00;5.73;;;13.40;99.90;;;;;;6242220;23;20449;-70
2022/10/15 07:29:46;;;;;;;9.67;6.40;;;13.50;99.90;;;;;;6242277;23;20762;-70
2022/10/15 07:32:13;;;;;;;6.13;5.53;;;13.60;99.90;;;;;;6241905;23;20430;-70
2022/10/15 07:34:39;;;;;;;8.90;5.80;;;13.60;99.90;;;;;;6242816;23;20422;-70
2022/10/15 07:37:06;;;;;;;9.90;7.27;;;13.70;99.90;;;;;;6241453;23;20446;-70
2022/10/15 07:39:33;;;;;;;7.80;5.57;;;13.70;99.90;;;;;;6241008;23;20420;-69
2022/10/15 07:41:59;;;;;;;11.30;7.03;;;13.80;99.90;;;;;;6242299;23;20426;-70
2022/10/15 07:44:27;;;;;;;9.90;6.90;;;13.90;99.90;;;;;;6242397;23;20525;-70
2022/10/15 07:46:54;;;;;;;8.60;5.80;;;14.00;99.90;;;;;;6242653;23;20465;-69
2022/10/15 07:49:21;;;;;;;6.47;3.80;;;14.10;99.90;;;;;;6242347;23;20451;-70
2022/10/15 07:51:47;;;;;;;5.30;4.77;;;14.00;99.90;;;;;;6242108;23;20487;-69
2022/10/15 07:54:14;;;;;;;7.60;5.30;;;14.10;99.90;;;;;;6241589;23;20422;-70
2022/10/15 07:56:54;;;;;;;9.20;6.00;;;14.10;99.90;;;;;;6242863;23;20451;-69
2022/10/15 07:59:36;;;;;;;5.40;4.90;;;14.20;99.90;;;;;;6242592;23;20502;-70
2022/10/15 08:02:03;;;;;;;5.23;4.50;;;14.10;99.90;;;;;;6242368;23;20412;-70
2022/10/15 08:04:31;;;;;;;5.87;4.97;;;14.10;99.90;;;;;;6250997;23;20508;-70
2022/10/15 08:06:58;;;;;;;5.53;4.63;;;14.10;99.90;;;;;;6241622;23;20454;-70
2022/10/15 08:09:28;;;;;;;6.37;4.40;;;14.10;99.90;;;;;;6241822;23;20448;-69
2022/10/15 08:11:58;;;;;;;5.70;5.10;;;14.10;99.90;;;;;;6241276;23;20445;-69
2022/10/15 08:14:25;;;;;;;6.07;5.07;;;14.10;99.90;;;;;;6238418;23;20429;-70
2022/10/15 08:16:58;;;;;;;6.00;4.50;;;14.10;99.90;;;;;;6240830;23;20509;-69
2022/10/15 08:19:28;;;;;;;6.40;4.30;;;14.10;99.90;;;;;;6242620;23;20430;-70
2022/10/15 08:21:59;;;;;;;5.47;4.93;;;14.10;99.90;;;;;;6241007;23;20433;-69
2022/10/15 08:24:29;;;;;;;12.33;6.60;;;14.10;99.90;;;;;;6240452;23;20426;-70
2022/10/15 08:26:57;;;;;;;8.60;4.70;;;14.20;99.90;;;;;;6241859;23;20482;-70
2022/10/15 08:29:27;;;;;;;5.53;3.87;;;14.20;99.90;;;;;;6244489;23;20443;-70
2022/10/15 08:31:59;;;;;;;6.90;4.77;;;14.20;99.90;;;;;;6244582;23;20466;-70
2022/10/15 08:34:26;;;;;;;8.17;4.23;;;14.20;99.90;;;;;;6241681;23;20489;-70
2022/10/15 08:36:55;;;;;;;5.93;5.50;;;14.30;99.90;;;;;;6241196;23;20443;-69
2022/10/15 08:39:22;;;;;;;7.50;4.60;;;14.30;99.90;;;;;;6240764;23;20419;-70
2022/10/15 08:41:57;;;;;;;10.70;4.90;;;14.40;99.90;;;;;;6241131;23;20782;-70
2022/10/15 08:44:28;;;;;;;5.83;5.17;;;14.40;99.90;;;;;;6252128;23;20422;-70
2022/10/15 08:47:04;;;;;;;6.40;5.17;;;14.50;99.90;;;;;;6242683;23;20493;-70
2022/10/15 08:49:41;;;;;;;9.77;5.07;;;14.50;99.90;;;;;;6240418;23;20436;-70
2022/10/15 08:52:20;;;;;;;5.83;5.33;;;14.50;99.90;;;;;;6241279;23;20732;-69
2022/10/15 08:54:47;;;;;;;12.80;5.07;;;14.50;99.90;;;;;;6241010;23;20414;-69
2022/10/15 08:57:25;;;;;;;7.73;4.53;;;14.50;99.90;;;;;;6242785;23;20481;-69
2022/10/15 09:00:05;;;;;;;4.20;3.80;;;14.60;99.90;;;;;;6254378;23;20403;-70
2022/10/15 09:02:42;;;;;;;4.83;4.37;;;14.70;99.90;;;;;;6261007;23;20903;-70
2022/10/15 09:05:33;;;;;;;10.30;5.07;;;14.70;99.90;;;;;;6243721;23;20722;-69
2022/10/15 09:08:09;;;;;;;10.97;4.40;;;14.70;99.90;;;;;;6243469;23;21002;-70
2022/10/15 09:10:43;;;;;;;8.80;4.33;;;14.60;99.90;;;;;;6243359;23;20462;-69
2022/10/15 09:13:14;;;;;;;4.77;3.30;;;14.70;99.90;;;;;;6253881;23;20426;-70
2022/10/15 09:15:51;;;;;;;5.10;3.50;;;14.80;99.90;;;;;;6244405;23;20892;-69
2022/10/15 09:18:27;;;;;;;4.73;3.67;;;14.90;99.90;;;;;;6243558;23;20730;-70
2022/10/15 09:21:00;;;;;;;4.83;3.00;;;14.90;99.90;;;;;;6243136;23;20488;-70
2022/10/15 09:23:32;;;;;;;10.27;4.37;;;14.90;99.90;;;;;;6241374;23;20431;-70
2022/10/15 09:26:13;;;;;;;3.30;3.10;;;14.80;99.90;;;;;;6243057;23;20515;-70
2022/10/15 09:28:48;;;;;;;11.00;3.70;;;14.80;99.90;;;;;;6243507;23;20435;-70
2022/10/15 09:31:21;;;;;;;4.87;3.50;;;14.90;99.90;;;;;;6244065;23;20511;-70
2022/10/15 09:34:00;;;;;;;2.93;2.70;;;14.90;99.90;;;;;;6241769;23;20490;-69
2022/10/15 09:36:36;;;;;;;3.20;3.07;;;15.00;99.90;;;;;;6243037;23;21143;-70
2022/10/15 09:39:35;;;;;;;4.83;3.70;;;15.00;99.90;;;;;;6238932;23;20481;-69
2022/10/15 09:42:14;;;;;;;3.37;3.10;;;15.10;99.90;;;;;;6242976;23;20467;-69
2022/10/15 09:44:44;;;;;;;8.43;4.30;;;15.20;99.90;;;;;;6243180;23;20415;-69
2022/10/15 09:47:25;;;;;;;4.27;2.80;;;15.20;99.90;;;;;;6242741;23;20818;-69
2022/10/15 09:49:54;;;;;;;3.33;2.30;;;15.20;99.90;;;;;;6243350;23;20431;-70
2022/10/15 09:52:39;;;;;;;6.60;4.23;;;15.20;99.90;;;;;;6242743;23;20427;-69
2022/10/15 09:55:20;;;;;;;6.73;3.83;;;15.20;99.90;;;;;;6242187;23;20909;-70
2022/10/15 09:57:51;;;;;;;3.57;3.17;;;15.30;99.90;;;;;;6243420;23;20447;-70
2022/10/15 10:00:24;;;;;;;3.20;2.90;;;15.40;99.90;;;;;;6243036;23;20417;-69
2022/10/15 10:03:06;;;;;;;8.87;4.27;;;15.80;99.90;;;;;;6242914;23;20420;-70
2022/10/15 10:05:37;;;;;;;3.07;2.80;;;15.60;99.90;;;;;;6243246;23;20411;-70
2022/10/15 10:08:10;;;;;;;9.40;2.77;;;15.70;99.90;;;;;;6243514;23;20805;-69
2022/10/15 10:10:39;;;;;;;4.83;3.30;;;15.70;99.90;;;;;;6243169;23;20773;-69
2022/10/15 10:13:26;;;;;;;3.73;3.43;;;15.70;99.90;;;;;;6242720;23;20420;-69
2022/10/15 10:15:56;;;;;;;3.23;3.03;;;15.90;99.90;;;;;;6241836;23;20442;-69
2022/10/15 10:18:25;;;;;;;3.27;2.97;;;15.90;99.90;;;;;;6242471;23;20414;-69
2022/10/15 10:21:03;;;;;;;3.20;3.00;;;16.00;99.90;;;;;;6243259;23;20470;-69
2022/10/15 10:23:35;;;;;;;3.13;2.83;;;16.00;99.90;;;;;;6252864;23;20403;-69
2022/10/15 10:26:04;;;;;;;2.83;2.73;;;16.10;99.90;;;;;;6242718;22;20452;-67
2022/10/15 10:28:34;;;;;;;3.93;3.00;;;16.20;99.90;;;;;;6242696;23;20423;-67
2022/10/15 10:31:04;;;;;;;3.20;2.13;;;16.20;99.90;;;;;;6242668;23;20566;-67
2022/10/15 10:33:34;;;;;;;3.43;3.23;;;16.10;99.90;;;;;;6243259;23;20441;-70
2022/10/15 10:36:05;;;;;;;2.50;1.83;;;16.20;99.90;;;;;;6242383;22;20821;-67
2022/10/15 10:38:33;;;;;;;4.13;2.47;;;16.30;99.90;;;;;;6242623;23;20425;-67
2022/10/15 10:41:05;;;;;;;4.07;3.70;;;16.40;99.90;;;;;;6242826;23;20450;-67
2022/10/15 10:43:34;;;;;;;2.97;2.77;;;16.40;99.90;;;;;;6240271;23;20404;-67
2022/10/15 10:46:03;;;;;;;12.13;2.90;;;16.50;99.90;;;;;;6241676;22;20444;-67
2022/10/15 10:48:38;;;;;;;3.80;1.90;;;16.60;99.90;;;;;;6242058;23;20429;-68
2022/10/15 10:51:10;;;;;;;5.93;3.73;;;16.70;99.90;;;;;;6241856;23;20436;-68
2022/10/15 10:53:46;;;;;;;2.13;2.03;;;16.70;99.90;;;;;;6241586;23;20419;-67
2022/10/15 10:56:14;;;;;;;3.40;3.10;;;16.80;99.90;;;;;;6242573;22;20444;-67
2022/10/15 10:58:41;;;;;;;1.47;1.37;;;16.80;99.90;;;;;;6242152;23;20425;-67
2022/10/15 11:01:12;;;;;;;6.50;2.63;;;16.80;99.90;;;;;;6241896;23;20886;-68
2022/10/15 11:03:40;;;;;;;2.30;1.90;;;16.70;99.90;;;;;;6239659;23;20414;-69
2022/10/15 11:06:33;;;;;;;2.53;2.43;;;16.80;99.90;;;;;;6241983;22;20447;-68
2022/10/15 11:09:11;;;;;;;2.20;2.07;;;16.90;99.90;;;;;;6241858;23;20414;-69
2022/10/15 11:11:46;;;;;;;2.53;2.30;;;16.90;99.90;;;;;;6242776;23;20406;-68
2022/10/15 11:14:24;;;;;;;3.20;2.90;;;16.80;99.90;;;;;;6241378;23;20409;-68
2022/10/15 11:16:57;;;;;;;2.90;1.77;;;16.80;99.90;;;;;;6242455;22;20444;-69
2022/10/15 11:19:32;;;;;;;1.90;1.90;;;16.90;99.90;;;;;;6242719;23;20400;-68
2022/10/15 11:22:12;;;;;;;5.13;2.63;;;16.90;99.90;;;;;;6242551;23;20406;-68
2022/10/15 11:24:45;;;;;;;2.53;1.47;;;17.00;99.90;;;;;;6241325;22;20406;-68
2022/10/15 11:27:24;;;;;;;1.80;1.60;;;17.10;99.90;;;;;;6243036;23;20405;-68
2022/10/15 11:29:56;;;;;;;1.20;1.20;;;17.20;99.90;;;;;;6242520;23;20437;-67
2022/10/15 11:32:38;;;;;;;1.27;1.20;;;17.20;99.90;;;;;;6241938;23;20411;-68
2022/10/15 11:35:18;;;;;;;1.33;1.33;;;17.20;99.90;;;;;;6241712;22;20504;-68
2022/10/15 11:37:59;;;;;;;1.30;1.30;;;17.20;99.90;;;;;;6241040;23;20470;-68
2022/10/15 11:40:35;;;;;;;2.57;2.37;;;17.20;99.90;;;;;;6241926;23;20462;-68
2022/10/15 11:43:09;;;;;;;1.33;1.33;;;17.30;99.90;;;;;;6242494;23;20405;-69
2022/10/15 11:45:56;;;;;;;0.83;0.83;;;17.30;99.90;;;;;;6241420;22;20442;-68
2022/10/15 11:48:34;;;;;;;1.30;1.20;;;17.20;99.90;;;;;;6241456;23;20402;-68
2022/10/15 11:51:06;;;;;;;1.00;1.00;;;17.30;99.90;;;;;;6242460;23;20746;-68
2022/10/15 11:53:51;;;;;;;1.07;0.67;;;17.40;99.90;;;;;;6241631;23;20465;-68
2022/10/15 11:56:20;;;;;;;0.77;0.77;;;17.40;99.90;;;;;;6243088;22;20453;-68
2022/10/15 11:58:51;;;;;;;2.23;0.93;;;17.50;99.90;;;;;;6242789;23;20754;-68
2022/10/15 12:01:23;;;;;;;1.40;1.40;;;17.50;99.90;;;;;;6242439;23;20423;-68
2022/10/15 12:03:55;;;;;;;1.00;1.00;;;17.50;99.90;;;;;;6241406;23;20486;-68
2022/10/15 12:06:25;;;;;;;1.03;1.03;;;17.60;99.90;;;;;;6241006;22;20715;-68
2022/10/15 12:08:54;;;;;;;1.20;1.20;;;17.60;99.90;;;;;;6241998;23;20429;-68
2022/10/15 12:11:31;;;;;;;1.50;1.50;;;17.60;99.90;;;;;;6242519;23;20448;-68
2022/10/15 12:14:02;;;;;;;2.23;2.00;;;17.70;99.90;;;;;;6242306;23;20489;-68
2022/10/15 12:16:36;;;;;;;1.10;1.10;;;17.70;99.90;;;;;;6242155;22;20445;-69
2022/10/15 12:19:13;;;;;;;1.27;1.27;;;17.80;99.90;;;;;;6242681;23;20405;-68
2022/10/15 12:21:43;;;;;;;1.03;1.03;;;17.90;99.90;;;;;;6241011;23;20408;-68
2022/10/15 12:24:46;;;;;;;1.50;1.50;;;17.90;99.90;;;;;;6241358;23;20726;-68
2022/10/15 12:27:28;;;;;;;1.43;1.43;;;17.90;99.90;;;;;;6211727;23;20916;-67
2022/10/15 12:30:23;;;;;;;1.67;1.57;;;18.00;99.90;;;;;;6211973;23;20441;-68
2022/10/15 12:32:51;;;;;;;2.50;2.40;;;17.90;99.90;;;;;;6212122;23;20403;-68
2022/10/15 12:35:35;;;;;;;2.20;2.10;;;18.00;99.90;;;;;;6210486;23;20763;-68
2022/10/15 12:38:19;;;;;;;3.07;2.90;;;18.00;99.90;;;;;;6211510;23;20454;-68
2022/10/15 12:40:46;;;;;;;4.20;3.90;;;18.00;99.90;;;;;;6212315;23;20726;-68
2022/10/15 12:43:17;;;;;;;4.03;3.73;;;18.00;99.90;;;;;;6213175;23;20555;-68
2022/10/15 12:45:52;;;;;;;4.50;4.10;;;18.00;99.90;;;;;;6212810;23;20449;-68
2022/10/15 12:48:30;;;;;;;3.10;2.90;;;18.00;99.90;;;;;;6212775;23;20438;-68
2022/10/15 12:51:34;;;;;;;5.33;4.20;;;18.00;99.90;;;;;;6210131;23;20491;-68
2022/10/15 12:54:01;;;;;;;4.17;3.87;;;18.00;99.90;;;;;;6212825;23;20401;-68
2022/10/15 12:56:38;;;;;;;3.53;3.10;;;17.90;99.90;;;;;;6222661;23;20454;-67
2022/10/15 12:59:29;;;;;;;14.23;5.30;;;17.80;99.90;;;;;;6214020;23;20458;-68
2022/10/15 13:01:56;;;;;;;3.20;3.00;;;17.90;99.90;;;;;;6214161;23;20850;-69
2022/10/15 13:04:23;;;;;;;4.17;3.80;;;18.10;99.90;;;;;;6212953;23;20439;-68
2022/10/15 13:06:50;;;;;;;3.70;3.40;;;18.20;99.90;;;;;;6212968;23;20438;-68
2022/10/15 13:09:29;;;;;;;5.40;3.30;;;18.30;99.90;;;;;;6213276;23;20418;-68
2022/10/15 13:11:57;;;;;;;2.40;2.30;;;18.30;99.90;;;;;;6213680;23;20410;-69
2022/10/15 13:14:35;;;;;;;3.20;3.00;;;18.30;99.90;;;;;;6211371;23;20533;-68
2022/10/15 13:17:04;;;;;;;3.50;3.30;;;18.30;99.90;;;;;;6213557;23;20471;-68
2022/10/15 13:19:36;;;;;;;4.07;3.70;;;18.40;99.90;;;;;;6213177;23;20431;-68
2022/10/15 13:22:06;;;;;;;3.07;2.87;;;18.40;99.90;;;;;;6212550;23;20433;-68
2022/10/15 13:24:44;;;;;;;12.80;3.17;;;18.30;99.90;;;;;;6211741;23;20429;-68
2022/10/15 13:27:16;;;;;;;3.80;3.50;;;18.30;99.90;;;;;;6212721;23;20459;-68
2022/10/15 13:29:56;;;;;;;3.40;3.30;;;18.30;99.90;;;;;;6213165;23;20446;-69
2022/10/15 13:32:23;;;;;;;3.40;3.20;;;18.30;99.90;;;;;;6212636;23;20407;-71
2022/10/15 13:34:50;;;;;;;3.27;3.07;;;18.30;99.90;;;;;;6211450;23;20422;-69
2022/10/15 13:37:20;;;;;;;4.40;4.10;;;18.30;99.90;;;;;;6211974;23;20735;-68
2022/10/15 13:39:51;;;;;;;4.10;3.83;;;18.30;99.90;;;;;;6212125;23;20408;-70
2022/10/15 13:42:19;;;;;;;3.13;2.90;;;18.40;99.90;;;;;;6213087;23;20412;-70
2022/10/15 13:44:59;;;;;;;4.37;4.07;;;18.50;99.90;;;;;;6211775;23;20424;-73
2022/10/15 13:47:28;;;;;;;3.73;3.50;;;18.60;99.90;;;;;;6213342;23;20408;-70
2022/10/15 13:50:10;;;;;;;4.23;3.93;;;18.60;99.90;;;;;;6212269;23;20535;-69
2022/10/15 13:52:40;;;;;;;2.97;2.77;;;18.60;99.90;;;;;;6211384;23;20404;-74
2022/10/15 13:55:16;;;;;;;2.73;2.50;;;18.60;99.90;;;;;;6211525;23;20447;-74
2022/10/15 13:57:45;;;;;;;3.33;3.10;;;18.60;99.90;;;;;;6213045;23;20408;-68
2022/10/15 14:00:23;;;;;;;2.93;2.83;;;18.70;99.90;;;;;;6212853;23;20468;-73
2022/10/15 14:03:14;;;;;;;3.07;2.97;;;18.70;99.90;;;;;;6211709;23;20447;-69
2022/10/15 14:05:42;;;;;;;2.83;2.70;;;18.60;99.90;;;;;;6211468;23;20471;-70
2022/10/15 14:08:20;;;;;;;2.93;2.83;;;18.60;99.90;;;;;;6211933;23;20427;-68
2022/10/15 14:10:47;;;;;;;2.80;2.70;;;18.60;99.90;;;;;;6212547;23;21300;-73
2022/10/15 14:13:14;;;;;;;3.13;3.03;;;18.60;99.90;;;;;;6212907;23;20439;-71
2022/10/15 14:15:46;;;;;;;2.70;2.50;;;18.50;99.90;;;;;;6212960;23;20445;-73
2022/10/15 14:18:15;;;;;;;3.97;3.77;;;18.40;99.90;;;;;;6212648;23;20457;-69
2022/10/15 14:20:46;;;;;;;3.13;2.83;;;18.30;99.90;;;;;;6212044;23;20822;-69
2022/10/15 14:23:20;;;;;;;3.93;3.03;;;18.40;99.90;;;;;;6211549;23;20434;-68
2022/10/15 14:25:52;;;;;;;2.80;2.60;;;18.30;99.90;;;;;;6226586;23;20453;-68
2022/10/15 14:28:21;;;;;;;2.90;2.70;;;18.20;99.90;;;;;;6241785;23;20411;-69
2022/10/15 14:30:49;;;;;;;2.80;2.63;;;18.10;99.90;;;;;;6243108;23;20450;-70
2022/10/15 14:33:34;;;;;;;2.53;2.33;;;18.10;99.90;;;;;;6243055;23;20476;-68
2022/10/15 14:36:06;;;;;;;2.13;2.13;;;18.10;99.90;;;;;;6242610;22;21008;-68
2022/10/15 14:38:33;;;;;;;3.73;3.20;;;18.10;99.90;;;;;;6241697;23;20771;-67
2022/10/15 14:41:01;;;;;;;3.50;3.37;;;18.10;99.90;;;;;;6242643;23;20422;-68
2022/10/15 14:43:32;;;;;;;3.10;2.97;;;18.10;99.90;;;;;;6241913;23;20427;-68
2022/10/15 14:46:03;;;;;;;2.60;2.50;;;18.10;99.90;;;;;;6240788;22;20735;-68
2022/10/15 14:48:33;;;;;;;2.73;2.60;;;18.10;99.90;;;;;;6242534;23;20445;-68
2022/10/15 14:51:03;;;;;;;2.47;2.37;;;18.00;99.90;;;;;;6242133;23;20476;-68
2022/10/15 14:53:35;;;;;;;2.60;2.40;;;17.90;99.90;;;;;;6241974;23;20422;-68
2022/10/15 14:56:06;;;;;;;2.60;2.50;;;17.90;99.90;;;;;;6242908;22;20837;-68
2022/10/15 14:58:33;;;;;;;3.47;3.20;;;17.80;99.90;;;;;;6242240;23;20457;-69
2022/10/15 15:01:04;;;;;;;3.07;2.90;;;17.80;99.90;;;;;;6241648;23;20516;-68
2022/10/15 15:03:40;;;;;;;6.13;2.97;;;17.70;99.90;;;;;;6242184;23;20405;-68
2022/10/15 15:06:08;;;;;;;1.97;1.87;;;17.60;99.90;;;;;;6241613;22;20440;-69
2022/10/15 15:08:35;;;;;;;2.57;2.40;;;17.50;99.90;;;;;;6242236;23;20489;-68
2022/10/15 15:11:04;;;;;;;1.70;1.70;;;17.50;99.90;;;;;;6243054;23;20445;-68
2022/10/15 15:13:32;;;;;;;2.37;2.17;;;17.50;99.90;;;;;;6243126;23;20496;-67
2022/10/15 15:15:58;;;;;;;2.60;2.50;;;17.40;99.90;;;;;;6240408;22;20503;-68
2022/10/15 15:18:27;;;;;;;1.77;1.77;;;17.40;99.90;;;;;;6242232;23;20928;-69
2022/10/15 15:20:57;;;;;;;2.30;2.20;;;17.40;99.90;;;;;;6242003;23;20473;-68
2022/10/15 15:23:26;;;;;;;2.37;2.27;;;17.40;99.90;;;;;;6241995;23;20775;-69
2022/10/15 15:25:54;;;;;;;2.00;1.90;;;17.40;99.90;;;;;;6241938;22;20526;-68
2022/10/15 15:28:23;;;;;;;2.40;2.30;;;17.40;99.90;;;;;;6240889;23;20420;-68
2022/10/15 15:30:55;;;;;;;2.60;2.50;;;17.40;99.90;;;;;;6241343;23;20522;-68
2022/10/15 15:33:22;;;;;;;1.73;1.73;;;17.40;99.90;;;;;;6241373;23;20445;-68
2022/10/15 15:35:53;;;;;;;2.47;2.37;;;17.40;99.90;;;;;;6242371;22;20469;-67
2022/10/15 15:38:21;;;;;;;1.87;1.77;;;17.40;99.90;;;;;;6239888;23;20412;-68
2022/10/15 15:40:48;;;;;;;1.90;1.80;;;17.30;99.90;;;;;;6242082;23;20428;-68
2022/10/15 15:43:17;;;;;;;1.93;1.93;;;17.40;99.90;;;;;;6241742;23;20483;-68
2022/10/15 15:45:45;;;;;;;2.20;2.10;;;17.30;99.90;;;;;;6241475;22;20445;-68
2022/10/15 15:48:13;;;;;;;1.87;1.77;;;17.20;99.90;;;;;;6242543;23;20421;-68
2022/10/15 15:50:39;;;;;;;1.93;1.83;;;17.10;99.90;;;;;;6241897;23;20531;-68
2022/10/15 15:53:08;;;;;;;1.70;1.70;;;17.00;99.90;;;;;;6241856;23;20428;-68
2022/10/15 15:55:35;;;;;;;1.87;1.77;;;17.00;99.90;;;;;;6241104;22;20442;-67
2022/10/15 15:58:01;;;;;;;3.57;3.30;;;17.00;99.90;;;;;;6241953;23;20434;-67
2022/10/15 16:00:28;;;;;;;1.80;1.70;;;16.90;99.90;;;;;;6242186;23;20755;-67
2022/10/15 16:02:55;;;;;;;2.47;2.30;;;16.90;99.90;;;;;;6241579;23;20916;-67
2022/10/15 16:05:22;;;;;;;1.87;1.87;;;16.80;99.90;;;;;;6242076;22;20756;-67
2022/10/15 16:07:49;;;;;;;2.37;2.23;;;16.80;99.90;;;;;;6241843;23;20433;-67
2022/10/15 16:10:17;;;;;;;2.07;2.00;;;16.70;99.90;;;;;;6240256;23;20433;-68
2022/10/15 16:12:44;;;;;;;2.00;1.90;;;16.70;99.90;;;;;;6242508;23;20444;-68
2022/10/15 16:15:11;;;;;;;4.67;2.93;;;16.70;99.90;;;;;;6242917;22;20471;-68
2022/10/15 16:17:38;;;;;;;2.70;2.50;;;16.70;99.90;;;;;;6243228;23;20425;-68
2022/10/15 16:20:05;;;;;;;2.80;2.60;;;16.60;99.90;;;;;;6244334;23;20448;-68
2022/10/15 16:22:32;;;;;;;2.53;2.43;;;16.60;99.90;;;;;;6243023;23;20418;-68
2022/10/15 16:24:59;;;;;;;4.60;3.33;;;16.60;99.90;;;;;;6243510;22;21064;-67
2022/10/15 16:27:31;;;;;;;2.60;2.50;;;16.60;99.90;;;;;;6244087;22;20456;-72
2022/10/15 16:29:59;;;;;;;2.80;2.63;;;16.60;99.90;;;;;;6256304;23;20430;-71
2022/10/15 16:32:26;;;;;;;1.93;1.83;;;16.50;99.90;;;;;;6255887;23;20747;-72
2022/10/15 16:34:53;;;;;;;2.20;2.10;;;16.50;99.90;;;;;;6245077;23;20426;-68
2022/10/15 16:37:19;;;;;;;1.87;1.87;;;16.50;99.90;;;;;;6244539;22;21063;-68
2022/10/15 16:39:46;;;;;;;2.43;2.30;;;16.50;99.90;;;;;;6246282;23;20957;-70
2022/10/15 16:42:13;;;;;;;5.77;3.03;;;16.50;99.90;;;;;;6248668;23;20419;-70
2022/10/15 16:44:41;;;;;;;1.93;1.87;;;16.40;99.90;;;;;;6245457;23;20426;-69
2022/10/15 16:47:08;;;;;;;2.10;2.00;;;16.40;99.90;;;;;;6245543;22;20975;-70
2022/10/15 16:49:34;;;;;;;2.60;2.40;;;16.40;99.90;;;;;;6244297;23;20424;-70
2022/10/15 16:52:01;;;;;;;2.00;1.90;;;16.40;99.90;;;;;;6244134;23;20910;-71
2022/10/15 16:54:28;;;;;;;5.30;4.50;;;16.40;99.90;;;;;;6243998;23;20415;-70
2022/10/15 16:56:55;;;;;;;2.13;2.03;;;16.40;99.90;;;;;;6245418;22;20440;-70
2022/10/15 16:59:22;;;;;;;3.10;2.90;;;16.40;99.90;;;;;;6245728;23;20740;-70
2022/10/15 17:01:50;;;;;;;2.10;2.00;;;16.40;99.90;;;;;;6244965;23;20805;-69
2022/10/15 17:04:17;;;;;;;2.07;1.97;;;16.40;99.90;;;;;;6243265;23;20423;-69
2022/10/15 17:06:44;;;;;;;1.37;1.37;;;16.40;99.90;;;;;;6244941;22;20767;-70